sensor_id;sensor_type;location;lat;lon;timestamp;pressure;altitude;pressure_sealevel;temperature;humidity
54920;BME280;63804;53.120;8.764;2023-05-29T00:00:22;102448.22;;;13.37;61.94
54920;BME280;63804;53.120;8.764;2023-05-29T00:02:50;102448.22;;;13.37;61.57
54920;BME280;63804;53.120;8.764;2023-05-29T00:05:18;102447.13;;;13.26;62.34
54920;BME280;63804;53.120;8.764;2023-05-29T00:07:45;102447.13;;;13.26;62.22
54920;BME280;63804;53.120;8.764;2023-05-29T00:10:13;102454.00;;;13.30;61.93
54920;BME280;63804;53.120;8.764;2023-05-29T00:12:40;102448.56;;;13.31;62.12
54920;BME280;63804;53.120;8.764;2023-05-29T00:15:08;102452.53;;;13.08;62.58
54920;BME280;63804;53.120;8.764;2023-05-29T00:17:36;102453.66;;;13.04;62.78
54920;BME280;63804;53.120;8.764;2023-05-29T00:20:05;102453.66;;;13.04;62.58
54920;BME280;63804;53.120;8.764;2023-05-29T00:22:39;102454.88;;;12.99;62.89
54920;BME280;63804;53.120;8.764;2023-05-29T00:25:07;102456.56;;;13.00;62.81
54920;BME280;63804;53.120;8.764;2023-05-29T00:27:37;102455.38;;;13.05;62.53
54920;BME280;63804;53.120;8.764;2023-05-29T00:30:05;102462.25;;;12.93;62.92
54920;BME280;63804;53.120;8.764;2023-05-29T00:32:32;102458.66;;;12.95;62.97
54920;BME280;63804;53.120;8.764;2023-05-29T00:35:00;102459.59;;;12.93;62.74
54920;BME280;63804;53.120;8.764;2023-05-29T00:37:27;102460.34;;;12.80;63.05
54920;BME280;63804;53.120;8.764;2023-05-29T00:39:55;102464.72;;;12.81;63.00
54920;BME280;63804;53.120;8.764;2023-05-29T00:42:22;102472.44;;;12.69;63.44
54920;BME280;63804;53.120;8.764;2023-05-29T00:44:50;102474.06;;;12.72;63.43
54920;BME280;63804;53.120;8.764;2023-05-29T00:47:17;102478.53;;;12.87;62.90
54920;BME280;63804;53.120;8.764;2023-05-29T00:49:44;102477.25;;;12.95;62.72
54920;BME280;63804;53.120;8.764;2023-05-29T00:52:12;102481.94;;;12.74;63.29
54920;BME280;63804;53.120;8.764;2023-05-29T00:54:44;102486.09;;;12.79;62.93
54920;BME280;63804;53.120;8.764;2023-05-29T00:57:13;102481.19;;;12.72;63.35
54920;BME280;63804;53.120;8.764;2023-05-29T00:59:41;102480.84;;;12.78;63.10
54920;BME280;63804;53.120;8.764;2023-05-29T01:02:09;102475.47;;;12.79;63.24
54920;BME280;63804;53.120;8.764;2023-05-29T01:04:37;102486.69;;;12.84;62.88
54920;BME280;63804;53.120;8.764;2023-05-29T01:07:05;102486.56;;;12.70;63.08
54920;BME280;63804;53.120;8.764;2023-05-29T01:09:33;102491.66;;;12.75;63.42
54920;BME280;63804;53.120;8.764;2023-05-29T01:12:26;102482.47;;;12.80;63.05
54920;BME280;63804;53.120;8.764;2023-05-29T01:15:21;102483.84;;;12.72;63.51
54920;BME280;63804;53.120;8.764;2023-05-29T01:29:00;102494.75;;;12.34;64.69
54920;BME280;63804;53.120;8.764;2023-05-29T01:31:30;102499.50;;;12.44;64.20
54920;BME280;63804;53.120;8.764;2023-05-29T01:33:59;102495.38;;;12.55;63.82
54920;BME280;63804;53.120;8.764;2023-05-29T01:36:29;102492.03;;;12.51;64.06
54920;BME280;63804;53.120;8.764;2023-05-29T01:38:58;102496.75;;;12.46;64.26
54920;BME280;63804;53.120;8.764;2023-05-29T01:41:26;102487.06;;;12.45;64.34
54920;BME280;63804;53.120;8.764;2023-05-29T01:43:56;102484.47;;;12.43;64.30
54920;BME280;63804;53.120;8.764;2023-05-29T01:46:24;102485.47;;;12.25;64.97
54920;BME280;63804;53.120;8.764;2023-05-29T01:48:53;102491.09;;;12.36;64.69
54920;BME280;63804;53.120;8.764;2023-05-29T01:51:22;102486.44;;;12.40;64.29
54920;BME280;63804;53.120;8.764;2023-05-29T01:53:49;102500.66;;;12.39;64.41
54920;BME280;63804;53.120;8.764;2023-05-29T01:56:17;102503.03;;;12.28;64.91
54920;BME280;63804;53.120;8.764;2023-05-29T01:58:45;102504.53;;;12.33;64.53
54920;BME280;63804;53.120;8.764;2023-05-29T02:01:12;102512.03;;;12.25;65.06
54920;BME280;63804;53.120;8.764;2023-05-29T02:03:40;102499.47;;;12.29;64.77
54920;BME280;63804;53.120;8.764;2023-05-29T02:06:07;102509.03;;;12.31;64.50
54920;BME280;63804;53.120;8.764;2023-05-29T02:08:34;102502.13;;;12.29;64.62
54920;BME280;63804;53.120;8.764;2023-05-29T02:11:01;102501.72;;;12.19;64.76
54920;BME280;63804;53.120;8.764;2023-05-29T02:13:29;102502.69;;;12.18;64.88
54920;BME280;63804;53.120;8.764;2023-05-29T02:15:56;102503.44;;;12.20;64.76
54920;BME280;63804;53.120;8.764;2023-05-29T02:18:23;102506.88;;;12.22;64.72
54920;BME280;63804;53.120;8.764;2023-05-29T02:20:51;102510.31;;;12.24;64.43
54920;BME280;63804;53.120;8.764;2023-05-29T02:23:19;102518.13;;;12.27;64.32
54920;BME280;63804;53.120;8.764;2023-05-29T02:25:46;102516.72;;;12.20;64.31
54920;BME280;63804;53.120;8.764;2023-05-29T02:28:13;102522.88;;;12.20;64.37
54920;BME280;63804;53.120;8.764;2023-05-29T02:30:40;102514.69;;;12.25;64.18
54920;BME280;63804;53.120;8.764;2023-05-29T02:33:08;102519.63;;;12.15;64.55
54920;BME280;63804;53.120;8.764;2023-05-29T02:35:35;102518.84;;;12.13;64.16
54920;BME280;63804;53.120;8.764;2023-05-29T02:38:02;102522.81;;;12.05;64.48
54920;BME280;63804;53.120;8.764;2023-05-29T02:40:30;102517.75;;;12.00;64.48
54920;BME280;63804;53.120;8.764;2023-05-29T02:42:57;102524.97;;;11.98;64.54
54920;BME280;63804;53.120;8.764;2023-05-29T02:45:24;102523.88;;;12.02;64.08
54920;BME280;63804;53.120;8.764;2023-05-29T02:47:51;102519.56;;;12.00;63.99
54920;BME280;63804;53.120;8.764;2023-05-29T02:50:19;102522.38;;;11.97;63.94
54920;BME280;63804;53.120;8.764;2023-05-29T02:52:46;102523.88;;;12.02;63.47
54920;BME280;63804;53.120;8.764;2023-05-29T02:55:13;102524.56;;;12.06;63.37
54920;BME280;63804;53.120;8.764;2023-05-29T02:57:40;102521.03;;;12.05;63.45
54920;BME280;63804;53.120;8.764;2023-05-29T03:00:08;102520.09;;;12.06;63.31
54920;BME280;63804;53.120;8.764;2023-05-29T03:02:36;102517.19;;;11.93;63.27
54920;BME280;63804;53.120;8.764;2023-05-29T03:05:03;102517.53;;;11.87;63.35
54920;BME280;63804;53.120;8.764;2023-05-29T03:07:31;102517.63;;;11.67;64.34
54920;BME280;63804;53.120;8.764;2023-05-29T03:09:58;102523.09;;;11.81;63.78
54920;BME280;63804;53.120;8.764;2023-05-29T03:12:26;102512.41;;;11.83;63.55
54920;BME280;63804;53.120;8.764;2023-05-29T03:14:54;102514.19;;;11.82;63.49
54920;BME280;63804;53.120;8.764;2023-05-29T03:17:23;102514.09;;;11.85;63.10
54920;BME280;63804;53.120;8.764;2023-05-29T03:19:50;102510.44;;;11.88;62.94
54920;BME280;63804;53.120;8.764;2023-05-29T03:22:18;102508.78;;;11.85;63.08
54920;BME280;63804;53.120;8.764;2023-05-29T03:24:45;102504.41;;;11.84;63.11
54920;BME280;63804;53.120;8.764;2023-05-29T03:27:12;102506.22;;;11.84;62.93
54920;BME280;63804;53.120;8.764;2023-05-29T03:29:39;102507.91;;;11.85;62.93
54920;BME280;63804;53.120;8.764;2023-05-29T03:32:06;102508.03;;;11.82;62.84
54920;BME280;63804;53.120;8.764;2023-05-29T03:34:34;102508.88;;;11.84;62.77
54920;BME280;63804;53.120;8.764;2023-05-29T03:37:01;102508.28;;;11.77;63.04
54920;BME280;63804;53.120;8.764;2023-05-29T03:39:29;102508.38;;;11.76;62.93
54920;BME280;63804;53.120;8.764;2023-05-29T03:41:56;102504.25;;;11.87;62.93
54920;BME280;63804;53.120;8.764;2023-05-29T03:44:23;102504.44;;;11.83;62.62
54920;BME280;63804;53.120;8.764;2023-05-29T03:46:51;102506.91;;;11.87;62.27
54920;BME280;63804;53.120;8.764;2023-05-29T03:49:18;102518.19;;;11.74;62.76
54920;BME280;63804;53.120;8.764;2023-05-29T03:51:45;102519.34;;;11.87;62.63
54920;BME280;63804;53.120;8.764;2023-05-29T03:54:12;102519.00;;;11.93;62.12
54920;BME280;63804;53.120;8.764;2023-05-29T03:56:40;102518.25;;;11.91;62.33
54920;BME280;63804;53.120;8.764;2023-05-29T03:59:07;102518.44;;;11.86;62.42
54920;BME280;63804;53.120;8.764;2023-05-29T04:01:34;102523.34;;;11.77;62.53
54920;BME280;63804;53.120;8.764;2023-05-29T04:04:02;102528.88;;;11.72;62.83
54920;BME280;63804;53.120;8.764;2023-05-29T04:06:29;102530.66;;;11.54;63.75
54920;BME280;63804;53.120;8.764;2023-05-29T04:08:56;102531.53;;;11.72;63.11
54920;BME280;63804;53.120;8.764;2023-05-29T04:11:23;102534.63;;;11.63;63.50
54920;BME280;63804;53.120;8.764;2023-05-29T04:13:50;102531.84;;;11.66;63.25
54920;BME280;63804;53.120;8.764;2023-05-29T04:16:19;102538.00;;;11.66;63.29
54920;BME280;63804;53.120;8.764;2023-05-29T04:18:46;102544.16;;;11.50;63.98
54920;BME280;63804;53.120;8.764;2023-05-29T04:21:13;102546.06;;;11.65;63.70
54920;BME280;63804;53.120;8.764;2023-05-29T04:23:40;102551.81;;;11.92;62.70
54920;BME280;63804;53.120;8.764;2023-05-29T04:26:08;102557.59;;;12.00;62.25
54920;BME280;63804;53.120;8.764;2023-05-29T04:28:35;102550.22;;;12.05;62.27
54920;BME280;63804;53.120;8.764;2023-05-29T04:31:04;102553.22;;;11.99;62.22
54920;BME280;63804;53.120;8.764;2023-05-29T04:33:32;102549.84;;;11.95;62.38
54920;BME280;63804;53.120;8.764;2023-05-29T04:35:59;102558.00;;;12.10;61.61
54920;BME280;63804;53.120;8.764;2023-05-29T04:38:30;102552.66;;;11.92;62.19
54920;BME280;63804;53.120;8.764;2023-05-29T04:40:58;102549.84;;;11.95;62.13
54920;BME280;63804;53.120;8.764;2023-05-29T04:43:25;102555.63;;;12.04;61.78
54920;BME280;63804;53.120;8.764;2023-05-29T04:45:53;102557.81;;;12.13;61.65
54920;BME280;63804;53.120;8.764;2023-05-29T04:48:20;102558.75;;;12.29;61.03
54920;BME280;63804;53.120;8.764;2023-05-29T04:50:48;102561.47;;;12.28;60.94
54920;BME280;63804;53.120;8.764;2023-05-29T04:53:19;102557.25;;;12.24;60.95
54920;BME280;63804;53.120;8.764;2023-05-29T04:55:46;102562.31;;;12.28;60.76
54920;BME280;63804;53.120;8.764;2023-05-29T04:58:14;102569.38;;;12.12;60.96
54920;BME280;63804;53.120;8.764;2023-05-29T05:00:41;102575.94;;;12.22;61.10
54920;BME280;63804;53.120;8.764;2023-05-29T05:03:10;102583.44;;;12.31;60.76
54920;BME280;63804;53.120;8.764;2023-05-29T05:05:37;102588.69;;;12.33;60.20
54920;BME280;63804;53.120;8.764;2023-05-29T05:08:04;102586.47;;;12.41;60.26
54920;BME280;63804;53.120;8.764;2023-05-29T05:10:32;102582.63;;;12.47;59.86
54920;BME280;63804;53.120;8.764;2023-05-29T05:12:59;102585.84;;;12.53;60.00
54920;BME280;63804;53.120;8.764;2023-05-29T05:15:29;102584.72;;;12.57;59.81
54920;BME280;63804;53.120;8.764;2023-05-29T05:17:56;102589.59;;;12.49;60.21
54920;BME280;63804;53.120;8.764;2023-05-29T05:20:23;102579.50;;;12.56;60.31
54920;BME280;63804;53.120;8.764;2023-05-29T05:22:51;102576.66;;;12.59;59.95
54920;BME280;63804;53.120;8.764;2023-05-29T05:25:18;102577.97;;;12.52;60.62
54920;BME280;63804;53.120;8.764;2023-05-29T05:27:45;102582.78;;;12.61;59.91
54920;BME280;63804;53.120;8.764;2023-05-29T05:30:13;102580.50;;;12.71;59.88
54920;BME280;63804;53.120;8.764;2023-05-29T05:32:40;102567.13;;;12.72;59.72
54920;BME280;63804;53.120;8.764;2023-05-29T05:35:07;102568.91;;;12.72;59.72
54920;BME280;63804;53.120;8.764;2023-05-29T05:37:37;102569.53;;;12.77;59.68
54920;BME280;63804;53.120;8.764;2023-05-29T05:40:05;102560.72;;;12.92;59.17
54920;BME280;63804;53.120;8.764;2023-05-29T05:42:34;102566.56;;;12.99;58.84
54920;BME280;63804;53.120;8.764;2023-05-29T05:45:01;102561.66;;;12.91;59.25
54920;BME280;63804;53.120;8.764;2023-05-29T05:47:29;102570.53;;;12.74;59.35
54920;BME280;63804;53.120;8.764;2023-05-29T05:49:57;102580.66;;;12.67;59.79
54920;BME280;63804;53.120;8.764;2023-05-29T05:52:24;102575.19;;;12.71;59.38
54920;BME280;63804;53.120;8.764;2023-05-29T05:54:52;102575.44;;;12.82;58.94
54920;BME280;63804;53.120;8.764;2023-05-29T05:57:19;102575.63;;;12.79;59.45
54920;BME280;63804;53.120;8.764;2023-05-29T05:59:47;102575.53;;;12.80;59.29
54920;BME280;63804;53.120;8.764;2023-05-29T06:02:14;102577.19;;;12.83;59.20
54920;BME280;63804;53.120;8.764;2023-05-29T06:04:41;102574.69;;;12.96;58.96
54920;BME280;63804;53.120;8.764;2023-05-29T06:07:09;102578.22;;;12.96;59.10
54920;BME280;63804;53.120;8.764;2023-05-29T06:09:37;102578.16;;;12.98;58.80
54920;BME280;63804;53.120;8.764;2023-05-29T06:12:04;102574.44;;;13.00;58.65
54920;BME280;63804;53.120;8.764;2023-05-29T06:14:32;102582.78;;;13.10;58.56
54920;BME280;63804;53.120;8.764;2023-05-29T06:17:00;102580.13;;;13.10;58.73
54920;BME280;63804;53.120;8.764;2023-05-29T06:19:27;102588.66;;;13.16;58.64
54920;BME280;63804;53.120;8.764;2023-05-29T06:21:54;102590.50;;;13.14;58.54
54920;BME280;63804;53.120;8.764;2023-05-29T06:24:21;102593.00;;;13.17;59.06
54920;BME280;63804;53.120;8.764;2023-05-29T06:26:48;102596.44;;;13.20;58.66
54920;BME280;63804;53.120;8.764;2023-05-29T06:29:17;102603.38;;;13.22;58.63
54920;BME280;63804;53.120;8.764;2023-05-29T06:31:44;102595.84;;;13.14;59.18
54920;BME280;63804;53.120;8.764;2023-05-29T06:34:11;102594.00;;;13.32;58.87
54920;BME280;63804;53.120;8.764;2023-05-29T06:36:38;102600.94;;;13.35;58.88
54920;BME280;63804;53.120;8.764;2023-05-29T06:39:07;102592.25;;;13.31;58.42
54920;BME280;63804;53.120;8.764;2023-05-29T06:41:34;102594.16;;;13.29;58.33
54920;BME280;63804;53.120;8.764;2023-05-29T06:44:02;102588.47;;;13.35;58.41
54920;BME280;63804;53.120;8.764;2023-05-29T06:46:29;102595.63;;;13.35;58.05
54920;BME280;63804;53.120;8.764;2023-05-29T06:48:56;102589.97;;;13.25;57.85
54920;BME280;63804;53.120;8.764;2023-05-29T06:51:23;102590.66;;;13.29;57.77
54920;BME280;63804;53.120;8.764;2023-05-29T06:53:50;102585.66;;;13.38;57.60
54920;BME280;63804;53.120;8.764;2023-05-29T06:56:18;102601.28;;;13.45;57.29
54920;BME280;63804;53.120;8.764;2023-05-29T06:58:45;102604.53;;;13.50;57.60
54920;BME280;63804;53.120;8.764;2023-05-29T07:01:12;102599.91;;;13.53;57.17
54920;BME280;63804;53.120;8.764;2023-05-29T07:03:39;102605.34;;;13.52;57.49
54920;BME280;63804;53.120;8.764;2023-05-29T07:06:07;102591.66;;;13.58;56.90
54920;BME280;63804;53.120;8.764;2023-05-29T07:08:34;102596.75;;;13.62;56.52
54920;BME280;63804;53.120;8.764;2023-05-29T07:11:02;102594.84;;;13.64;56.44
54920;BME280;63804;53.120;8.764;2023-05-29T07:13:29;102591.72;;;13.72;56.12
54920;BME280;63804;53.120;8.764;2023-05-29T07:15:56;102599.28;;;13.80;56.72
54920;BME280;63804;53.120;8.764;2023-05-29T07:18:23;102602.53;;;13.85;56.21
54920;BME280;63804;53.120;8.764;2023-05-29T07:20:50;102612.31;;;13.84;56.16
54920;BME280;63804;53.120;8.764;2023-05-29T07:23:18;102603.03;;;13.92;56.26
54920;BME280;63804;53.120;8.764;2023-05-29T07:25:45;102601.56;;;14.02;55.93
54920;BME280;63804;53.120;8.764;2023-05-29T07:28:13;102608.59;;;14.03;55.68
54920;BME280;63804;53.120;8.764;2023-05-29T07:30:47;102609.09;;;14.09;55.40
54920;BME280;63804;53.120;8.764;2023-05-29T07:33:15;102605.75;;;14.06;55.26
54920;BME280;63804;53.120;8.764;2023-05-29T07:35:42;102603.66;;;14.11;55.38
54920;BME280;63804;53.120;8.764;2023-05-29T07:38:09;102609.22;;;14.22;55.01
54920;BME280;63804;53.120;8.764;2023-05-29T07:40:36;102607.56;;;14.35;54.71
54920;BME280;63804;53.120;8.764;2023-05-29T07:43:07;102607.56;;;14.35;54.76
54920;BME280;63804;53.120;8.764;2023-05-29T07:45:34;102609.28;;;14.36;54.66
54920;BME280;63804;53.120;8.764;2023-05-29T07:48:01;102607.28;;;14.40;54.59
54920;BME280;63804;53.120;8.764;2023-05-29T07:50:28;102609.16;;;14.54;53.91
54920;BME280;63804;53.120;8.764;2023-05-29T07:52:56;102598.56;;;14.52;53.54
54920;BME280;63804;53.120;8.764;2023-05-29T07:55:23;102604.38;;;14.59;53.31
54920;BME280;63804;53.120;8.764;2023-05-29T07:57:50;102599.81;;;14.61;53.28
54920;BME280;63804;53.120;8.764;2023-05-29T08:00:17;102593.06;;;14.70;53.27
54920;BME280;63804;53.120;8.764;2023-05-29T08:02:44;102599.44;;;14.67;52.85
54920;BME280;63804;53.120;8.764;2023-05-29T08:05:12;102597.34;;;14.72;53.14
54920;BME280;63804;53.120;8.764;2023-05-29T08:07:40;102595.44;;;14.74;53.11
54920;BME280;63804;53.120;8.764;2023-05-29T08:10:08;102606.31;;;14.85;53.00
54920;BME280;63804;53.120;8.764;2023-05-29T08:12:35;102605.84;;;14.93;52.55
54920;BME280;63804;53.120;8.764;2023-05-29T08:15:03;102609.47;;;14.92;52.64
54920;BME280;63804;53.120;8.764;2023-05-29T08:17:30;102612.50;;;15.00;52.48
54920;BME280;63804;53.120;8.764;2023-05-29T08:19:57;102610.22;;;14.94;52.32
54920;BME280;63804;53.120;8.764;2023-05-29T08:22:29;102612.41;;;14.87;52.50
54920;BME280;63804;53.120;8.764;2023-05-29T08:25:00;102615.72;;;14.91;52.36
54920;BME280;63804;53.120;8.764;2023-05-29T08:27:28;102613.53;;;14.98;52.29
54920;BME280;63804;53.120;8.764;2023-05-29T08:29:55;102610.78;;;14.99;52.19
54920;BME280;63804;53.120;8.764;2023-05-29T08:32:23;102617.38;;;15.08;52.01
54920;BME280;63804;53.120;8.764;2023-05-29T08:34:50;102620.88;;;15.08;51.68
54920;BME280;63804;53.120;8.764;2023-05-29T08:37:18;102615.44;;;15.10;51.03
54920;BME280;63804;53.120;8.764;2023-05-29T08:39:45;102608.94;;;15.14;50.65
54920;BME280;63804;53.120;8.764;2023-05-29T08:42:14;102615.63;;;15.21;50.41
54920;BME280;63804;53.120;8.764;2023-05-29T08:44:46;102612.75;;;15.24;50.40
54920;BME280;63804;53.120;8.764;2023-05-29T08:47:17;102616.28;;;15.25;50.08
54920;BME280;63804;53.120;8.764;2023-05-29T08:49:54;102616.28;;;15.25;50.20
54920;BME280;63804;53.120;8.764;2023-05-29T08:52:23;102619.81;;;15.25;50.60
54920;BME280;63804;53.120;8.764;2023-05-29T08:54:55;102620.75;;;15.39;50.64
54920;BME280;63804;53.120;8.764;2023-05-29T08:57:23;102618.94;;;15.39;50.65
54920;BME280;63804;53.120;8.764;2023-05-29T08:59:51;102615.06;;;15.30;50.22
54920;BME280;63804;53.120;8.764;2023-05-29T09:02:19;102617.31;;;15.36;50.16
54920;BME280;63804;53.120;8.764;2023-05-29T09:04:47;102619.78;;;15.40;49.65
54920;BME280;63804;53.120;8.764;2023-05-29T09:07:19;102610.94;;;15.39;49.88
54920;BME280;63804;53.120;8.764;2023-05-29T09:09:47;102613.28;;;15.44;49.88
54920;BME280;63804;53.120;8.764;2023-05-29T09:12:15;102611.41;;;15.46;49.91
54920;BME280;63804;53.120;8.764;2023-05-29T09:14:44;102614.63;;;15.51;50.58
54920;BME280;63804;53.120;8.764;2023-05-29T09:17:13;102613.00;;;15.48;50.64
54920;BME280;63804;53.120;8.764;2023-05-29T09:19:40;102620.16;;;15.48;50.83
54920;BME280;63804;53.120;8.764;2023-05-29T09:22:12;102620.06;;;15.49;50.37
54920;BME280;63804;53.120;8.764;2023-05-29T09:24:48;102615.47;;;15.51;50.52
54920;BME280;63804;53.120;8.764;2023-05-29T09:27:17;102609.44;;;15.62;50.36
54920;BME280;63804;53.120;8.764;2023-05-29T09:29:45;102613.81;;;15.63;50.17
54920;BME280;63804;53.120;8.764;2023-05-29T09:32:17;102615.63;;;15.63;49.89
54920;BME280;63804;53.120;8.764;2023-05-29T09:34:45;102617.44;;;15.62;49.58
54920;BME280;63804;53.120;8.764;2023-05-29T09:37:12;102621.47;;;15.69;49.42
54920;BME280;63804;53.120;8.764;2023-05-29T09:39:50;102616.00;;;15.71;49.06
54920;BME280;63804;53.120;8.764;2023-05-29T09:42:20;102610.78;;;15.69;49.30
54920;BME280;63804;53.120;8.764;2023-05-29T09:44:50;102603.13;;;15.77;48.84
54920;BME280;63804;53.120;8.764;2023-05-29T09:47:21;102604.97;;;15.90;48.59
54920;BME280;63804;53.120;8.764;2023-05-29T09:49:48;102611.63;;;15.97;48.44
54920;BME280;63804;53.120;8.764;2023-05-29T09:52:21;102615.69;;;16.02;47.64
54920;BME280;63804;53.120;8.764;2023-05-29T09:54:49;102610.34;;;16.02;47.81
54920;BME280;63804;53.120;8.764;2023-05-29T09:57:17;102612.09;;;16.03;48.07
54920;BME280;63804;53.120;8.764;2023-05-29T09:59:45;102611.56;;;16.11;47.94
54920;BME280;63804;53.120;8.764;2023-05-29T10:02:18;102609.63;;;16.13;48.33
54920;BME280;63804;53.120;8.764;2023-05-29T10:04:45;102613.72;;;16.19;48.44
54920;BME280;63804;53.120;8.764;2023-05-29T10:07:22;102612.69;;;16.34;48.07
54920;BME280;63804;53.120;8.764;2023-05-29T10:09:54;102609.34;;;16.30;48.08
54920;BME280;63804;53.120;8.764;2023-05-29T10:12:28;102608.19;;;16.35;48.09
54920;BME280;63804;53.120;8.764;2023-05-29T10:14:57;102601.34;;;16.30;48.31
54920;BME280;63804;53.120;8.764;2023-05-29T10:17:38;102597.81;;;16.30;48.39
54920;BME280;63804;53.120;8.764;2023-05-29T10:20:09;102593.19;;;16.32;48.76
54920;BME280;63804;53.120;8.764;2023-05-29T10:22:40;102604.34;;;16.39;48.89
54920;BME280;63804;53.120;8.764;2023-05-29T10:25:10;102586.13;;;16.31;48.79
54920;BME280;63804;53.120;8.764;2023-05-29T10:27:38;102589.34;;;16.23;48.48
54920;BME280;63804;53.120;8.764;2023-05-29T10:30:12;102585.50;;;16.27;48.15
54920;BME280;63804;53.120;8.764;2023-05-29T10:35:25;102584.97;;;16.35;48.24
54920;BME280;63804;53.120;8.764;2023-05-29T10:37:55;102587.44;;;16.38;49.00
54920;BME280;63804;53.120;8.764;2023-05-29T10:40:25;102587.75;;;16.33;48.96
54920;BME280;63804;53.120;8.764;2023-05-29T10:42:54;102581.88;;;16.41;49.24
54920;BME280;63804;53.120;8.764;2023-05-29T10:47:55;102585.72;;;16.50;48.28
54920;BME280;63804;53.120;8.764;2023-05-29T10:50:35;102593.34;;;16.56;48.41
54920;BME280;63804;53.120;8.764;2023-05-29T10:53:02;102581.88;;;16.54;48.47
54920;BME280;63804;53.120;8.764;2023-05-29T10:55:37;102581.00;;;16.66;48.17
54920;BME280;63804;53.120;8.764;2023-05-29T10:58:11;102589.38;;;16.74;48.03
54920;BME280;63804;53.120;8.764;2023-05-29T11:00:42;102573.75;;;16.68;47.75
54920;BME280;63804;53.120;8.764;2023-05-29T11:03:10;102579.63;;;16.61;47.87
54920;BME280;63804;53.120;8.764;2023-05-29T11:08:55;102577.06;;;16.72;48.28
54920;BME280;63804;53.120;8.764;2023-05-29T11:11:30;102578.97;;;16.70;48.66
54920;BME280;63804;53.120;8.764;2023-05-29T11:14:05;102581.97;;;16.65;48.58
54920;BME280;63804;53.120;8.764;2023-05-29T11:19:04;102569.25;;;16.69;48.20
54920;BME280;63804;53.120;8.764;2023-05-29T11:24:22;102577.28;;;16.81;48.31
54920;BME280;63804;53.120;8.764;2023-05-29T11:26:54;102579.31;;;16.91;48.76
54920;BME280;63804;53.120;8.764;2023-05-29T11:29:28;102576.66;;;16.91;48.16
54920;BME280;63804;53.120;8.764;2023-05-29T11:32:03;102574.06;;;16.89;47.89
54920;BME280;63804;53.120;8.764;2023-05-29T11:34:31;102562.84;;;16.84;47.50
54920;BME280;63804;53.120;8.764;2023-05-29T11:37:00;102557.56;;;16.95;47.22
54920;BME280;63804;53.120;8.764;2023-05-29T11:39:28;102564.22;;;17.02;47.31
54920;BME280;63804;53.120;8.764;2023-05-29T11:41:56;102560.34;;;17.07;47.63
54920;BME280;63804;53.120;8.764;2023-05-29T11:44:26;102560.69;;;17.02;47.56
54920;BME280;63804;53.120;8.764;2023-05-29T11:49:30;102563.88;;;17.07;48.15
54920;BME280;63804;53.120;8.764;2023-05-29T11:52:07;102563.66;;;17.10;48.35
54920;BME280;63804;53.120;8.764;2023-05-29T11:54:38;102570.41;;;17.03;48.62
54920;BME280;63804;53.120;8.764;2023-05-29T11:57:05;102572.88;;;17.06;48.32
54920;BME280;63804;53.120;8.764;2023-05-29T11:59:33;102579.03;;;17.19;47.66
54920;BME280;63804;53.120;8.764;2023-05-29T12:02:03;102577.13;;;17.21;47.68
54920;BME280;63804;53.120;8.764;2023-05-29T12:04:30;102573.03;;;17.16;48.35
54920;BME280;63804;53.120;8.764;2023-05-29T12:06:57;102573.47;;;17.22;48.28
54920;BME280;63804;53.120;8.764;2023-05-29T12:09:28;102575.06;;;17.25;47.85
54920;BME280;63804;53.120;8.764;2023-05-29T12:12:05;102579.03;;;17.19;47.62
54920;BME280;63804;53.120;8.764;2023-05-29T12:14:33;102575.09;;;17.12;48.25
54920;BME280;63804;53.120;8.764;2023-05-29T12:17:00;102575.31;;;17.09;48.48
54920;BME280;63804;53.120;8.764;2023-05-29T12:19:28;102572.81;;;17.19;48.42
54920;BME280;63804;53.120;8.764;2023-05-29T12:21:56;102571.50;;;17.24;47.83
54920;BME280;63804;53.120;8.764;2023-05-29T12:24:23;102569.25;;;17.31;47.17
54920;BME280;63804;53.120;8.764;2023-05-29T12:27:08;102577.50;;;17.28;46.99
54920;BME280;63804;53.120;8.764;2023-05-29T12:29:36;102573.13;;;17.27;47.75
54920;BME280;63804;53.120;8.764;2023-05-29T12:32:03;102568.63;;;17.27;47.61
54920;BME280;63804;53.120;8.764;2023-05-29T12:34:34;102573.75;;;17.30;48.08
54920;BME280;63804;53.120;8.764;2023-05-29T12:37:09;102569.66;;;17.38;47.88
54920;BME280;63804;53.120;8.764;2023-05-29T12:39:40;102568.41;;;17.30;47.76
54920;BME280;63804;53.120;8.764;2023-05-29T12:42:07;102572.13;;;17.41;48.05
54920;BME280;63804;53.120;8.764;2023-05-29T12:44:37;102563.81;;;17.33;48.10
54920;BME280;63804;53.120;8.764;2023-05-29T12:47:04;102570.22;;;17.30;48.76
54920;BME280;63804;53.120;8.764;2023-05-29T12:49:35;102573.53;;;17.34;48.24
54920;BME280;63804;53.120;8.764;2023-05-29T12:52:05;102570.63;;;17.37;47.93
54920;BME280;63804;53.120;8.764;2023-05-29T12:54:34;102575.31;;;17.46;47.20
54920;BME280;63804;53.120;8.764;2023-05-29T12:57:01;102564.25;;;17.50;47.48
54920;BME280;63804;53.120;8.764;2023-05-29T12:59:29;102568.03;;;17.48;47.40
54920;BME280;63804;53.120;8.764;2023-05-29T13:01:57;102569.88;;;17.59;47.04
54920;BME280;63804;53.120;8.764;2023-05-29T13:04:24;102577.19;;;17.57;46.94
54920;BME280;63804;53.120;8.764;2023-05-29T13:06:51;102574.53;;;17.57;46.95
54920;BME280;63804;53.120;8.764;2023-05-29T13:09:18;102586.84;;;17.59;46.48
54920;BME280;63804;53.120;8.764;2023-05-29T13:11:45;102578.22;;;17.43;46.46
54920;BME280;63804;53.120;8.764;2023-05-29T13:14:13;102580.88;;;17.43;46.97
54920;BME280;63804;53.120;8.764;2023-05-29T13:16:40;102581.16;;;17.51;46.39
54920;BME280;63804;53.120;8.764;2023-05-29T13:19:07;102575.09;;;17.49;46.19
54920;BME280;63804;53.120;8.764;2023-05-29T13:21:34;102567.56;;;17.54;46.47
54920;BME280;63804;53.120;8.764;2023-05-29T13:24:02;102574.41;;;17.58;46.62